createdAt,value
2023-01-28T00:01:39.837Z,4.10
2023-01-28T00:04:08.433Z,4.30
2023-01-28T00:06:37.189Z,4.80
2023-01-28T00:09:06.088Z,3.70
2023-01-28T00:11:34.535Z,4.90
2023-01-28T00:14:04.026Z,4.40
2023-01-28T00:16:32.397Z,4.00
2023-01-28T00:19:00.871Z,4.20
2023-01-28T00:21:29.422Z,4.20
2023-01-28T00:23:58.029Z,4.60
2023-01-28T00:26:26.610Z,4.20
2023-01-28T00:28:55.164Z,4.30
2023-01-28T00:31:26.561Z,4.30
2023-01-28T00:33:56.538Z,3.60
2023-01-28T00:36:26.156Z,3.90
2023-01-28T00:38:56.393Z,5.00
2023-01-28T00:41:26.672Z,4.10
2023-01-28T00:43:55.656Z,4.30
2023-01-28T00:46:25.785Z,4.10
2023-01-28T00:48:54.293Z,4.10
2023-01-28T00:51:22.963Z,4.40
2023-01-28T00:53:52.430Z,4.20
2023-01-28T00:56:20.936Z,4.00
2023-01-28T00:58:49.296Z,4.00
2023-01-28T01:01:20.029Z,4.20
2023-01-28T01:03:56.709Z,4.40
2023-01-28T01:06:25.627Z,4.90
2023-01-28T01:08:55.740Z,4.70
2023-01-28T01:11:24.898Z,4.10
2023-01-28T01:13:55.475Z,4.60
2023-01-28T01:18:55.945Z,5.00
2023-01-28T01:21:27.080Z,5.00
2023-01-28T01:23:56.462Z,4.40
2023-01-28T01:26:26.677Z,4.70
2023-01-28T01:28:55.497Z,4.40
2023-01-28T01:31:24.052Z,5.10
2023-01-28T01:33:52.881Z,4.60
2023-01-28T01:36:21.441Z,5.10
2023-01-28T01:38:53.916Z,4.50
2023-01-28T01:41:27.398Z,4.60
2023-01-28T01:43:57.853Z,4.50
2023-01-28T01:46:33.684Z,5.00
2023-01-28T01:49:11.503Z,5.10
2023-01-28T01:51:40.885Z,6.30
2023-01-28T01:54:09.497Z,4.60
2023-01-28T01:56:41.925Z,4.60
2023-01-28T01:59:13.796Z,5.30
2023-01-28T02:01:44.925Z,5.70
2023-01-28T02:04:19.934Z,4.80
2023-01-28T02:06:48.928Z,5.60
2023-01-28T02:11:55.794Z,4.90
2023-01-28T02:14:31.423Z,4.50
2023-01-28T02:17:01.591Z,4.80
2023-01-28T02:19:37.992Z,4.70
2023-01-28T02:22:31.132Z,4.50
2023-01-28T02:25:18.135Z,4.50
2023-01-28T02:28:09.576Z,4.80
2023-01-28T02:30:42.456Z,4.50
2023-01-28T02:33:17.255Z,4.60
2023-01-28T02:35:52.145Z,5.70
2023-01-28T02:38:27.903Z,4.50
2023-01-28T02:41:05.977Z,5.50
2023-01-28T02:43:36.648Z,5.60
2023-01-28T02:46:37.998Z,5.20
2023-01-28T02:49:11.662Z,5.60
2023-01-28T02:51:57.029Z,5.30
2023-01-28T02:54:37.976Z,5.40
2023-01-28T02:57:18.851Z,5.80
2023-01-28T02:59:57.341Z,6.10
2023-01-28T03:02:38.527Z,6.20
2023-01-28T03:05:16.142Z,5.90
2023-01-28T03:07:45.253Z,5.90
2023-01-28T03:10:19.238Z,5.50
2023-01-28T03:13:09.760Z,5.70
2023-01-28T03:16:00.309Z,6.30
2023-01-28T03:18:54.363Z,6.30
2023-01-28T03:21:47.697Z,6.60
2023-01-28T03:24:39.593Z,6.40
2023-01-28T03:27:34.738Z,5.50
2023-01-28T03:30:30.921Z,6.00
2023-01-28T03:33:21.606Z,5.90
2023-01-28T03:36:09.253Z,6.40
2023-01-28T03:38:43.088Z,5.90
2023-01-28T03:41:19.778Z,5.90
2023-01-28T03:43:49.268Z,5.70
2023-01-28T03:46:18.137Z,4.80
2023-01-28T03:48:46.870Z,5.20
2023-01-28T03:51:17.204Z,5.30
2023-01-28T03:53:45.735Z,4.50
2023-01-28T03:56:17.830Z,4.70
2023-01-28T03:58:52.340Z,4.70
2023-01-28T04:01:21.031Z,3.90
2023-01-28T04:03:49.932Z,3.90
2023-01-28T04:06:28.585Z,3.90
2023-01-28T04:09:02.083Z,3.70
2023-01-28T04:11:53.587Z,4.00
2023-01-28T04:14:27.241Z,3.90
2023-01-28T04:19:28.102Z,4.30
2023-01-28T04:21:57.370Z,4.70
2023-01-28T04:24:26.992Z,4.20
2023-01-28T04:26:56.630Z,3.90
2023-01-28T04:29:26.274Z,3.20
2023-01-28T04:31:57.788Z,3.60
2023-01-28T04:34:56.552Z,3.60
2023-01-28T04:37:44.450Z,3.00
2023-01-28T04:40:44.147Z,3.20
2023-01-28T04:43:22.029Z,3.10
2023-01-28T04:45:53.287Z,2.70
2023-01-28T04:48:36.074Z,3.00
2023-01-28T04:51:31.928Z,3.20
2023-01-28T04:54:15.781Z,3.00
2023-01-28T04:56:44.549Z,4.10
2023-01-28T04:59:12.881Z,3.50
2023-01-28T05:01:41.471Z,4.50
2023-01-28T05:04:09.936Z,3.40
2023-01-28T05:06:40.261Z,5.00
2023-01-28T05:09:18.339Z,6.00
2023-01-28T05:11:46.963Z,4.30
2023-01-28T05:14:16.404Z,5.10
2023-01-28T05:16:49.539Z,5.10
2023-01-28T05:19:18.740Z,5.00
2023-01-28T05:21:48.445Z,4.50
2023-01-28T05:24:25.417Z,5.20
2023-01-28T05:26:55.066Z,4.80
2023-01-28T05:29:23.443Z,4.50
2023-01-28T05:31:51.805Z,3.70
2023-01-28T05:34:21.315Z,3.90
2023-01-28T05:36:49.719Z,3.80
2023-01-28T05:39:38.767Z,4.40
2023-01-28T05:42:07.098Z,4.90
2023-01-28T05:44:37.591Z,3.60
2023-01-28T05:47:26.325Z,4.20
2023-01-28T05:50:08.193Z,4.30
2023-01-28T05:52:45.549Z,4.00
2023-01-28T05:55:22.850Z,5.50
2023-01-28T05:57:51.401Z,5.90
2023-01-28T06:00:23.271Z,7.00
2023-01-28T06:02:52.537Z,8.50
2023-01-28T06:05:21.845Z,5.70
2023-01-28T06:07:50.349Z,5.20
2023-01-28T06:10:19.347Z,4.50
2023-01-28T06:12:48.726Z,6.50
2023-01-28T06:15:35.971Z,5.20
2023-01-28T06:18:25.492Z,12.80
2023-01-28T06:20:53.881Z,8.30
2023-01-28T06:23:22.789Z,8.40
2023-01-28T06:25:55.271Z,9.60
2023-01-28T06:30:52.947Z,6.00
2023-01-28T06:33:23.418Z,6.90
2023-01-28T06:35:51.787Z,6.30
2023-01-28T06:38:20.156Z,5.80
2023-01-28T06:40:52.249Z,4.50
2023-01-28T06:43:20.792Z,11.70
2023-01-28T06:45:49.145Z,6.10
2023-01-28T06:48:20.660Z,9.50
2023-01-28T06:50:49.811Z,6.40
2023-01-28T06:53:19.323Z,6.50
2023-01-28T06:55:47.729Z,4.80
2023-01-28T06:58:17.503Z,3.60
2023-01-28T07:00:45.849Z,3.20
2023-01-28T07:03:14.398Z,3.30
2023-01-28T07:05:42.938Z,4.80
2023-01-28T07:08:11.498Z,3.30
2023-01-28T07:10:39.843Z,2.80
2023-01-28T07:13:08.249Z,4.00
2023-01-28T07:15:36.933Z,4.50
2023-01-28T07:18:05.873Z,5.10
2023-01-28T07:20:35.267Z,4.70
2023-01-28T07:23:03.764Z,3.20
2023-01-28T07:25:32.569Z,3.80
2023-01-28T07:28:01.370Z,2.90
2023-01-28T07:30:30.089Z,3.90
2023-01-28T07:32:59.504Z,9.30
2023-01-28T07:35:29.165Z,3.80
2023-01-28T07:37:59.672Z,4.50
2023-01-28T07:40:29.311Z,3.70
2023-01-28T07:42:58.148Z,3.60
2023-01-28T07:45:29.934Z,3.60
2023-01-28T07:48:00.004Z,3.50
2023-01-28T07:50:30.746Z,4.10
2023-01-28T07:52:59.639Z,3.50
2023-01-28T07:55:31.168Z,3.50
2023-01-28T07:58:00.291Z,3.10
2023-01-28T08:00:30.828Z,3.00
2023-01-28T08:03:00.663Z,4.30
2023-01-28T08:05:38.446Z,3.90
2023-01-28T08:08:07.925Z,4.10
2023-01-28T08:10:37.812Z,3.20
2023-01-28T08:13:07.399Z,4.30
2023-01-28T08:15:36.551Z,6.10
2023-01-28T08:18:06.957Z,6.80
2023-01-28T08:20:35.875Z,5.70
2023-01-28T08:23:07.815Z,9.70
2023-01-28T08:25:36.442Z,4.80
2023-01-28T08:28:06.143Z,4.20
2023-01-28T08:30:37.107Z,4.80
2023-01-28T08:33:09.032Z,7.30
2023-01-28T08:35:39.844Z,4.40
2023-01-28T08:38:10.939Z,5.20
2023-01-28T08:40:39.853Z,4.00
2023-01-28T08:43:09.213Z,9.80
2023-01-28T08:45:40.188Z,6.40
2023-01-28T08:48:14.712Z,5.60
2023-01-28T08:50:44.471Z,4.70
2023-01-28T08:53:16.898Z,4.10
2023-01-28T08:55:46.869Z,5.20
2023-01-28T08:58:18.478Z,4.10
2023-01-28T09:00:51.163Z,4.70
2023-01-28T09:03:23.042Z,5.80
2023-01-28T09:05:52.971Z,4.80
2023-01-28T09:08:25.281Z,4.30
2023-01-28T09:10:57.288Z,4.10
2023-01-28T09:13:26.423Z,4.20
2023-01-28T09:15:55.661Z,3.90
2023-01-28T09:18:24.339Z,4.10
2023-01-28T09:20:52.863Z,4.40
2023-01-28T09:23:21.582Z,6.30
2023-01-28T09:25:50.678Z,6.70
2023-01-28T09:28:20.805Z,5.40
2023-01-28T09:30:50.676Z,4.70
2023-01-28T09:33:20.532Z,6.40
2023-01-28T09:35:51.974Z,5.40
2023-01-28T09:38:23.222Z,4.70
2023-01-28T09:40:55.674Z,4.80
2023-01-28T09:43:47.151Z,5.30
2023-01-28T09:46:18.160Z,6.00
2023-01-28T09:48:49.094Z,6.10
2023-01-28T09:51:31.109Z,5.70
2023-01-28T09:54:04.600Z,6.80
2023-01-28T09:56:41.275Z,6.20
2023-01-28T09:59:18.782Z,5.40
2023-01-28T10:01:56.710Z,5.10
2023-01-28T10:04:46.797Z,5.10
2023-01-28T10:07:35.465Z,5.00
2023-01-28T10:10:10.540Z,5.20
2023-01-28T10:12:54.564Z,5.50
2023-01-28T10:15:50.206Z,5.60
2023-01-28T10:18:26.874Z,5.80
2023-01-28T10:21:02.312Z,5.70
2023-01-28T10:23:43.898Z,5.20
2023-01-28T10:26:21.408Z,5.80
2023-01-28T10:28:55.986Z,5.20
2023-01-28T10:31:31.827Z,5.00
2023-01-28T10:34:02.097Z,5.70
2023-01-28T10:36:30.797Z,4.90
2023-01-28T10:38:59.675Z,5.30
2023-01-28T10:41:28.523Z,4.90
2023-01-28T10:43:58.046Z,7.80
2023-01-28T10:46:32.861Z,6.30
2023-01-28T10:49:09.800Z,7.60
2023-01-28T10:51:41.607Z,5.60
2023-01-28T10:54:20.876Z,5.80
2023-01-28T10:56:54.376Z,5.40
2023-01-28T10:59:27.564Z,5.40
2023-01-28T11:01:59.431Z,6.20
2023-01-28T11:04:31.373Z,5.90
2023-01-28T11:07:02.963Z,6.50
2023-01-28T11:09:37.204Z,5.00
2023-01-28T11:12:22.729Z,5.30
2023-01-28T11:14:53.108Z,4.10
2023-01-28T11:17:24.906Z,5.60
2023-01-28T11:19:55.994Z,5.50
2023-01-28T11:22:32.251Z,6.40
2023-01-28T11:25:02.636Z,4.70
2023-01-28T11:27:32.766Z,5.60
2023-01-28T11:30:03.955Z,7.60
2023-01-28T11:32:33.327Z,6.40
2023-01-28T11:35:01.814Z,5.50
2023-01-28T11:37:30.906Z,8.20
2023-01-28T11:40:19.013Z,5.20
2023-01-28T11:42:51.225Z,6.00
2023-01-28T11:45:25.871Z,5.70
2023-01-28T11:48:07.785Z,5.10
2023-01-28T11:50:44.161Z,5.70
2023-01-28T11:53:32.069Z,4.80
2023-01-28T11:56:16.200Z,4.70
2023-01-28T11:58:56.403Z,4.40
2023-01-28T12:01:37.593Z,4.20
2023-01-28T12:04:40.516Z,4.00
2023-01-28T12:09:55.751Z,5.20
2023-01-28T12:12:43.115Z,3.90
2023-01-28T12:15:37.802Z,3.10
2023-01-28T12:18:21.146Z,8.00
2023-01-28T12:20:58.905Z,3.60
2023-01-28T12:23:38.560Z,2.90
2023-01-28T12:26:13.177Z,2.60
2023-01-28T12:28:58.050Z,3.90
2023-01-28T12:31:46.933Z,5.20
2023-01-28T12:34:32.746Z,6.20
2023-01-28T12:37:06.652Z,5.40
2023-01-28T12:39:49.344Z,4.10
2023-01-28T12:42:24.319Z,3.50
2023-01-28T12:45:00.329Z,5.40
2023-01-28T12:47:34.937Z,12.90
2023-01-28T12:50:13.633Z,9.40
2023-01-28T12:52:47.082Z,7.60
2023-01-28T12:55:20.840Z,6.10
2023-01-28T12:57:52.167Z,4.20
2023-01-28T13:00:27.863Z,3.30
2023-01-28T13:03:09.648Z,2.50
2023-01-28T13:05:43.595Z,2.50
2023-01-28T13:08:17.561Z,2.90
2023-01-28T13:10:47.036Z,2.80
2023-01-28T13:13:22.259Z,2.70
2023-01-28T13:15:51.079Z,2.50
2023-01-28T13:18:43.620Z,2.80
2023-01-28T13:21:17.639Z,3.30
2023-01-28T13:23:50.186Z,2.90
2023-01-28T13:29:17.777Z,3.60
2023-01-28T13:31:50.527Z,4.60
2023-01-28T13:34:35.879Z,3.30
2023-01-28T13:37:17.696Z,3.30
2023-01-28T13:39:50.018Z,3.70
2023-01-28T13:42:25.994Z,3.70
2023-01-28T13:44:56.534Z,3.90
2023-01-28T13:47:33.200Z,4.40
2023-01-28T13:50:06.564Z,4.80
2023-01-28T13:52:44.156Z,4.30
2023-01-28T13:55:33.755Z,6.20
2023-01-28T13:58:45.452Z,5.60
2023-01-28T14:01:47.748Z,5.50
2023-01-28T14:04:41.780Z,6.70
2023-01-28T14:07:37.770Z,5.90
2023-01-28T14:10:21.360Z,5.50
2023-01-28T14:13:35.817Z,4.60
2023-01-28T14:16:30.692Z,5.30
2023-01-28T14:19:03.524Z,6.30
2023-01-28T14:21:35.464Z,6.00
2023-01-28T14:24:06.067Z,3.60
2023-01-28T14:26:49.827Z,5.90
2023-01-28T14:29:37.482Z,5.10
2023-01-28T14:32:11.847Z,4.70
2023-01-28T14:34:42.958Z,5.70
2023-01-28T14:37:16.850Z,5.30
2023-01-28T14:39:49.668Z,4.70
2023-01-28T14:45:05.095Z,5.90
2023-01-28T14:47:47.214Z,5.10
2023-01-28T14:50:31.229Z,6.10
2023-01-28T14:53:37.125Z,5.30
2023-01-28T14:56:16.921Z,5.90
2023-01-28T14:58:49.464Z,5.10
2023-01-28T15:01:22.892Z,4.50
2023-01-28T15:03:51.905Z,5.70
2023-01-28T15:06:24.051Z,5.00
2023-01-28T15:08:53.025Z,5.70
2023-01-28T15:11:25.506Z,5.20
2023-01-28T15:13:57.709Z,5.00
2023-01-28T15:16:29.673Z,5.90
2023-01-28T15:19:01.175Z,6.00
2023-01-28T15:21:30.905Z,6.20
2023-01-28T15:24:02.356Z,5.40
2023-01-28T15:26:33.365Z,6.60
2023-01-28T15:29:01.716Z,6.20
2023-01-28T15:31:31.989Z,5.90
2023-01-28T15:34:02.930Z,5.60
2023-01-28T15:36:32.453Z,6.00
2023-01-28T15:39:01.020Z,6.70
2023-01-28T15:41:33.620Z,6.60
2023-01-28T15:44:03.702Z,6.90
2023-01-28T15:46:33.159Z,7.20
2023-01-28T15:49:03.380Z,6.50
2023-01-28T15:51:33.644Z,7.20
2023-01-28T15:54:06.560Z,6.80
2023-01-28T15:56:35.802Z,8.50
2023-01-28T15:59:20.109Z,7.80
2023-01-28T16:01:48.604Z,8.40
2023-01-28T16:04:25.353Z,9.10
2023-01-28T16:06:55.872Z,8.00
2023-01-28T16:09:27.786Z,9.80
2023-01-28T16:12:03.145Z,10.00
2023-01-28T16:14:40.066Z,10.40
2023-01-28T16:17:09.682Z,11.60
2023-01-28T16:19:40.709Z,9.60
2023-01-28T16:22:20.421Z,9.90
2023-01-28T16:24:53.509Z,11.20
2023-01-28T16:27:24.128Z,13.00
2023-01-28T16:29:52.985Z,13.20
2023-01-28T16:32:31.071Z,16.80
2023-01-28T16:34:59.565Z,14.30
2023-01-28T16:37:28.306Z,13.00
2023-01-28T16:39:58.159Z,13.00
2023-01-28T16:42:28.905Z,12.50
2023-01-28T16:44:57.306Z,12.40
2023-01-28T16:47:26.048Z,13.60
2023-01-28T16:49:54.702Z,12.20
2023-01-28T16:52:23.310Z,12.90
2023-01-28T16:54:51.554Z,13.30
2023-01-28T16:57:22.018Z,14.30
2023-01-28T16:59:51.046Z,13.50
2023-01-28T17:02:19.710Z,14.90
2023-01-28T17:04:49.348Z,15.40
2023-01-28T17:07:17.706Z,16.30
2023-01-28T17:09:46.117Z,16.20
2023-01-28T17:12:14.647Z,18.10
2023-01-28T17:14:43.115Z,16.90
2023-01-28T17:17:11.606Z,16.80
2023-01-28T17:19:40.311Z,16.00
2023-01-28T17:22:09.181Z,15.70
2023-01-28T17:24:38.056Z,16.30
2023-01-28T17:27:06.753Z,15.30
2023-01-28T17:29:35.976Z,15.70
2023-01-28T17:32:04.701Z,15.60
2023-01-28T17:34:33.222Z,15.00
2023-01-28T17:37:01.738Z,14.80
2023-01-28T17:39:30.321Z,14.50
2023-01-28T17:41:58.878Z,16.20
2023-01-28T17:44:27.299Z,15.40
2023-01-28T17:46:55.689Z,15.80
2023-01-28T17:49:24.469Z,15.00
2023-01-28T17:51:52.972Z,15.80
2023-01-28T17:54:23.108Z,22.90
2023-01-28T17:56:51.655Z,18.30
2023-01-28T17:59:20.812Z,17.10
2023-01-28T18:01:50.068Z,16.90
2023-01-28T18:04:18.539Z,16.10
2023-01-28T18:06:48.581Z,18.30
2023-01-28T18:09:19.451Z,16.80
2023-01-28T18:11:47.949Z,16.60
2023-01-28T18:14:16.712Z,15.00
2023-01-28T18:16:45.443Z,16.60
2023-01-28T18:19:13.885Z,16.40
2023-01-28T18:21:52.555Z,17.30
2023-01-28T18:24:23.089Z,16.60
2023-01-28T18:26:54.633Z,18.10
2023-01-28T18:29:23.404Z,21.50
2023-01-28T18:31:53.586Z,22.10
2023-01-28T18:34:23.600Z,18.30
2023-01-28T18:36:52.950Z,18.40
2023-01-28T18:39:22.021Z,19.50
2023-01-28T18:41:53.440Z,20.00
2023-01-28T18:44:23.489Z,20.10
2023-01-28T18:46:52.282Z,20.00
2023-01-28T18:49:20.720Z,19.90
2023-01-28T18:51:50.106Z,22.50
2023-01-28T18:54:19.685Z,21.40
2023-01-28T18:56:49.196Z,23.00
2023-01-28T18:59:18.465Z,18.60
2023-01-28T19:01:47.112Z,19.60
2023-01-28T19:04:15.845Z,19.90
2023-01-28T19:06:44.818Z,19.20
2023-01-28T19:09:15.348Z,17.10
2023-01-28T19:11:44.063Z,17.80
2023-01-28T19:14:14.213Z,17.80
2023-01-28T19:16:43.850Z,17.70
2023-01-28T19:19:12.927Z,15.90
2023-01-28T19:21:41.540Z,15.00
2023-01-28T19:24:13.437Z,15.30
2023-01-28T19:26:43.948Z,16.00
2023-01-28T19:29:16.444Z,15.50
2023-01-28T19:31:47.770Z,16.20
2023-01-28T19:34:16.292Z,18.80
2023-01-28T19:36:44.987Z,18.80
2023-01-28T19:39:14.094Z,19.00
2023-01-28T19:41:43.913Z,21.50
2023-01-28T19:44:12.656Z,19.90
2023-01-28T19:46:41.484Z,18.30
2023-01-28T19:49:11.951Z,18.50
2023-01-28T19:51:40.434Z,18.50
2023-01-28T19:54:09.208Z,18.80
2023-01-28T19:56:37.902Z,20.00
2023-01-28T19:59:06.583Z,19.90
2023-01-28T20:01:35.865Z,20.00
2023-01-28T20:04:04.946Z,20.20
2023-01-28T20:06:35.419Z,19.00
2023-01-28T20:09:08.774Z,18.10
2023-01-28T20:11:37.226Z,18.50
2023-01-28T20:14:05.657Z,19.20
2023-01-28T20:16:35.347Z,20.80
2023-01-28T20:19:05.511Z,19.20
2023-01-28T20:21:35.162Z,19.90
2023-01-28T20:24:04.228Z,20.50
2023-01-28T20:26:37.001Z,21.40
2023-01-28T20:29:07.274Z,21.30
2023-01-28T20:31:36.545Z,21.40
2023-01-28T20:34:05.569Z,20.30
2023-01-28T20:36:34.332Z,22.60
2023-01-28T20:39:02.809Z,22.00
2023-01-28T20:41:31.213Z,22.10
2023-01-28T20:43:59.839Z,22.40
2023-01-28T20:46:29.792Z,22.70
2023-01-28T20:49:02.204Z,21.00
2023-01-28T20:51:35.601Z,22.40
2023-01-28T20:54:05.239Z,22.40
2023-01-28T20:56:34.127Z,21.70
2023-01-28T20:59:05.422Z,22.60
2023-01-28T21:01:36.488Z,22.60
2023-01-28T21:04:06.033Z,23.10
2023-01-28T21:06:35.907Z,22.20
2023-01-28T21:09:05.192Z,23.20
2023-01-28T21:11:33.936Z,22.20
2023-01-28T21:14:02.415Z,22.10
2023-01-28T21:16:31.133Z,23.40
2023-01-28T21:18:59.660Z,26.60
2023-01-28T21:21:29.103Z,24.60
2023-01-28T21:24:00.317Z,22.40
2023-01-28T21:26:29.537Z,22.40
2023-01-28T21:28:57.897Z,23.30
2023-01-28T21:31:27.049Z,21.50
2023-01-28T21:33:57.043Z,21.00
2023-01-28T21:36:27.013Z,22.50
2023-01-28T21:38:57.427Z,21.90
2023-01-28T21:41:26.501Z,21.90
2023-01-28T21:43:56.725Z,21.70
2023-01-28T21:46:26.999Z,21.70
2023-01-28T21:48:57.229Z,20.70
2023-01-28T21:51:37.157Z,20.60
2023-01-28T21:54:08.209Z,21.10
2023-01-28T21:56:36.893Z,19.30
2023-01-28T21:59:23.880Z,19.00
2023-01-28T22:01:52.807Z,19.10
2023-01-28T22:04:21.937Z,19.70
2023-01-28T22:06:51.907Z,20.40
2023-01-28T22:09:20.310Z,20.40
2023-01-28T22:11:48.765Z,17.10
2023-01-28T22:14:17.702Z,17.00
2023-01-28T22:16:46.460Z,16.60
2023-01-28T22:19:15.094Z,16.60
2023-01-28T22:21:45.223Z,16.20
2023-01-28T22:24:16.136Z,15.70
2023-01-28T22:26:46.439Z,15.10
2023-01-28T22:29:17.554Z,15.30
2023-01-28T22:31:46.531Z,16.10
2023-01-28T22:34:16.006Z,16.00
2023-01-28T22:36:45.374Z,15.40
2023-01-28T22:39:16.205Z,14.60
2023-01-28T22:41:45.202Z,14.30
2023-01-28T22:44:13.926Z,15.20
2023-01-28T22:46:42.337Z,14.30
2023-01-28T22:49:11.453Z,14.60
2023-01-28T22:51:39.848Z,13.80
2023-01-28T22:54:10.228Z,13.00
2023-01-28T22:56:39.967Z,13.20
2023-01-28T22:59:09.609Z,13.80
2023-01-28T23:01:39.413Z,12.00
2023-01-28T23:04:08.140Z,11.60
2023-01-28T23:06:36.802Z,10.70
2023-01-28T23:09:06.006Z,11.30
2023-01-28T23:11:34.979Z,12.50
2023-01-28T23:14:22.768Z,11.20
2023-01-28T23:17:10.005Z,10.90
2023-01-28T23:19:56.840Z,9.90
2023-01-28T23:22:48.727Z,9.90
2023-01-28T23:25:18.157Z,10.10
2023-01-28T23:27:46.524Z,11.00
2023-01-28T23:30:15.663Z,9.40
2023-01-28T23:32:48.114Z,10.00
2023-01-28T23:35:18.265Z,10.80
2023-01-28T23:37:47.296Z,10.80
2023-01-28T23:40:16.725Z,9.50
2023-01-28T23:42:49.619Z,10.00
2023-01-28T23:47:45.823Z,9.80
2023-01-28T23:50:15.876Z,9.40
2023-01-28T23:52:44.507Z,9.30
2023-01-28T23:55:13.378Z,9.50
2023-01-28T23:57:42.032Z,9.30
